sensor_id;sensor_type;location;lat;lon;timestamp;pressure;altitude;pressure_sealevel;temperature;humidity
82953;BME280;74888;40.196;44.560;2024-03-08T00:00:17;86889.78;;;6.08;57.15
82953;BME280;74888;40.196;44.560;2024-03-08T00:02:48;86883.84;;;6.08;57.57
82953;BME280;74888;40.196;44.560;2024-03-08T00:05:17;86894.78;;;6.17;57.00
82953;BME280;74888;40.196;44.560;2024-03-08T00:07:44;86892.25;;;6.34;56.45
82953;BME280;74888;40.196;44.560;2024-03-08T00:10:16;86897.53;;;6.51;56.22
82953;BME280;74888;40.196;44.560;2024-03-08T00:12:44;86891.91;;;6.63;55.75
82953;BME280;74888;40.196;44.560;2024-03-08T00:15:14;86893.84;;;6.74;54.93
82953;BME280;74888;40.196;44.560;2024-03-08T00:17:41;86890.06;;;6.80;54.74
82953;BME280;74888;40.196;44.560;2024-03-08T00:20:07;86888.88;;;6.87;54.55
82953;BME280;74888;40.196;44.560;2024-03-08T00:22:41;86884.38;;;6.93;54.57
82953;BME280;74888;40.196;44.560;2024-03-08T00:25:08;86882.72;;;6.90;54.72
82953;BME280;74888;40.196;44.560;2024-03-08T00:27:40;86891.72;;;6.83;54.42
82953;BME280;74888;40.196;44.560;2024-03-08T00:30:07;86887.22;;;6.78;54.49
82953;BME280;74888;40.196;44.560;2024-03-08T00:32:33;86890.03;;;6.75;54.07
82953;BME280;74888;40.196;44.560;2024-03-08T00:35:00;86891.94;;;6.74;53.61
82953;BME280;74888;40.196;44.560;2024-03-08T00:37:26;86890.72;;;6.70;53.47
82953;BME280;74888;40.196;44.560;2024-03-08T00:39:52;86891.22;;;6.68;53.37
82953;BME280;74888;40.196;44.560;2024-03-08T00:42:19;86890.72;;;6.64;53.26
82953;BME280;74888;40.196;44.560;2024-03-08T00:44:45;86893.69;;;6.41;52.08
82953;BME280;74888;40.196;44.560;2024-03-08T00:47:11;86893.69;;;6.35;52.86
82953;BME280;74888;40.196;44.560;2024-03-08T00:49:41;86889.66;;;6.29;52.01
82953;BME280;74888;40.196;44.560;2024-03-08T00:52:08;86894.84;;;6.29;53.12
82953;BME280;74888;40.196;44.560;2024-03-08T00:54:34;86895.13;;;6.36;52.37
82953;BME280;74888;40.196;44.560;2024-03-08T00:57:02;86900.06;;;6.34;52.61
82953;BME280;74888;40.196;44.560;2024-03-08T00:59:32;86908.63;;;6.35;52.29
82953;BME280;74888;40.196;44.560;2024-03-08T01:02:08;86903.44;;;6.40;51.86
82953;BME280;74888;40.196;44.560;2024-03-08T01:04:34;86898.44;;;6.37;52.22
82953;BME280;74888;40.196;44.560;2024-03-08T01:07:00;86905.75;;;6.33;52.23
82953;BME280;74888;40.196;44.560;2024-03-08T01:09:26;86906.97;;;6.37;52.00
82953;BME280;74888;40.196;44.560;2024-03-08T01:11:53;86913.38;;;6.42;52.12
82953;BME280;74888;40.196;44.560;2024-03-08T01:14:22;86917.34;;;6.26;52.17
82953;BME280;74888;40.196;44.560;2024-03-08T01:16:49;86909.72;;;6.22;52.02
82953;BME280;74888;40.196;44.560;2024-03-08T01:19:15;86913.06;;;6.23;51.73
82953;BME280;74888;40.196;44.560;2024-03-08T01:21:41;86914.47;;;6.18;51.81
82953;BME280;74888;40.196;44.560;2024-03-08T01:24:07;86920.38;;;6.13;51.98
82953;BME280;74888;40.196;44.560;2024-03-08T01:26:38;86924.31;;;6.03;51.60
82953;BME280;74888;40.196;44.560;2024-03-08T01:29:06;86922.69;;;6.06;52.03
82953;BME280;74888;40.196;44.560;2024-03-08T01:31:31;86926.47;;;6.10;51.98
82953;BME280;74888;40.196;44.560;2024-03-08T01:33:58;86921.94;;;6.05;52.34
82953;BME280;74888;40.196;44.560;2024-03-08T01:36:25;86929.25;;;5.96;51.95
82953;BME280;74888;40.196;44.560;2024-03-08T01:38:52;86934.41;;;5.90;52.32
82953;BME280;74888;40.196;44.560;2024-03-08T01:41:19;86933.00;;;5.89;52.40
82953;BME280;74888;40.196;44.560;2024-03-08T01:43:51;86933.00;;;5.89;52.26
82953;BME280;74888;40.196;44.560;2024-03-08T01:46:19;86935.59;;;5.89;52.30
82953;BME280;74888;40.196;44.560;2024-03-08T01:48:47;86937.47;;;5.89;52.41
82953;BME280;74888;40.196;44.560;2024-03-08T01:51:14;86937.69;;;5.85;52.37
82953;BME280;74888;40.196;44.560;2024-03-08T01:53:43;86932.41;;;5.80;52.58
82953;BME280;74888;40.196;44.560;2024-03-08T01:56:12;86935.00;;;5.74;52.52
82953;BME280;74888;40.196;44.560;2024-03-08T01:58:41;86937.84;;;5.76;52.71
82953;BME280;74888;40.196;44.560;2024-03-08T02:01:11;86945.03;;;5.87;52.97
82953;BME280;74888;40.196;44.560;2024-03-08T02:03:36;86946.53;;;5.99;52.30
82953;BME280;74888;40.196;44.560;2024-03-08T02:06:03;86951.50;;;5.97;52.99
82953;BME280;74888;40.196;44.560;2024-03-08T02:08:32;86947.16;;;5.83;52.98
82953;BME280;74888;40.196;44.560;2024-03-08T02:10:58;86949.84;;;5.68;52.92
82953;BME280;74888;40.196;44.560;2024-03-08T02:13:26;86954.25;;;5.57;53.15
82953;BME280;74888;40.196;44.560;2024-03-08T02:16:00;86957.94;;;5.45;54.01
82953;BME280;74888;40.196;44.560;2024-03-08T02:18:27;86959.38;;;5.46;53.63
82953;BME280;74888;40.196;44.560;2024-03-08T02:20:53;86966.47;;;5.45;53.09
82953;BME280;74888;40.196;44.560;2024-03-08T02:23:20;86962.84;;;5.37;53.27
82953;BME280;74888;40.196;44.560;2024-03-08T02:25:46;86964.66;;;5.26;53.65
82953;BME280;74888;40.196;44.560;2024-03-08T02:28:13;86962.25;;;5.22;53.73
82953;BME280;74888;40.196;44.560;2024-03-08T02:30:40;86968.97;;;5.34;53.86
82953;BME280;74888;40.196;44.560;2024-03-08T02:33:05;86976.81;;;5.40;53.93
82953;BME280;74888;40.196;44.560;2024-03-08T02:35:32;86970.44;;;5.41;53.97
82953;BME280;74888;40.196;44.560;2024-03-08T02:37:58;86965.94;;;5.41;53.49
82953;BME280;74888;40.196;44.560;2024-03-08T02:40:25;86978.56;;;5.48;53.51
82953;BME280;74888;40.196;44.560;2024-03-08T02:42:58;86976.63;;;5.43;53.57
82953;BME280;74888;40.196;44.560;2024-03-08T02:45:24;86972.03;;;5.33;54.16
82953;BME280;74888;40.196;44.560;2024-03-08T02:47:49;86983.31;;;5.04;55.28
82953;BME280;74888;40.196;44.560;2024-03-08T02:50:15;86982.56;;;4.98;55.03
82953;BME280;74888;40.196;44.560;2024-03-08T02:52:42;86980.63;;;4.93;55.21
82953;BME280;74888;40.196;44.560;2024-03-08T02:55:09;86982.31;;;4.96;55.80
82953;BME280;74888;40.196;44.560;2024-03-08T02:57:36;86985.09;;;4.92;55.85
82953;BME280;74888;40.196;44.560;2024-03-08T03:00:02;86984.63;;;4.94;56.23
82953;BME280;74888;40.196;44.560;2024-03-08T03:02:33;86987.97;;;4.94;55.75
82953;BME280;74888;40.196;44.560;2024-03-08T03:04:59;86996.09;;;5.02;55.33
82953;BME280;74888;40.196;44.560;2024-03-08T03:07:28;86989.59;;;5.18;55.53
82953;BME280;74888;40.196;44.560;2024-03-08T03:09:55;86993.34;;;5.37;55.08
82953;BME280;74888;40.196;44.560;2024-03-08T03:12:24;86992.53;;;5.51;54.87
82953;BME280;74888;40.196;44.560;2024-03-08T03:14:51;86990.91;;;5.53;53.74
82953;BME280;74888;40.196;44.560;2024-03-08T03:17:17;86991.28;;;5.41;54.40
82953;BME280;74888;40.196;44.560;2024-03-08T03:19:45;86985.75;;;5.33;54.47
82953;BME280;74888;40.196;44.560;2024-03-08T03:22:12;86982.41;;;5.27;54.11
82953;BME280;74888;40.196;44.560;2024-03-08T03:24:38;86991.53;;;5.17;54.02
82953;BME280;74888;40.196;44.560;2024-03-08T03:27:06;86984.66;;;5.20;54.05
82953;BME280;74888;40.196;44.560;2024-03-08T03:29:39;86982.06;;;5.20;53.73
82953;BME280;74888;40.196;44.560;2024-03-08T03:32:13;86985.34;;;5.15;54.07
82953;BME280;74888;40.196;44.560;2024-03-08T03:34:40;86980.59;;;5.13;54.69
82953;BME280;74888;40.196;44.560;2024-03-08T03:37:13;86975.13;;;5.11;54.14
82953;BME280;74888;40.196;44.560;2024-03-08T03:39:40;86987.88;;;5.09;53.93
82953;BME280;74888;40.196;44.560;2024-03-08T03:42:19;86984.25;;;5.01;54.45
82953;BME280;74888;40.196;44.560;2024-03-08T03:44:48;86984.91;;;4.96;53.87
82953;BME280;74888;40.196;44.560;2024-03-08T03:47:17;86985.09;;;4.92;53.99
82953;BME280;74888;40.196;44.560;2024-03-08T03:49:42;86989.28;;;4.84;54.61
82953;BME280;74888;40.196;44.560;2024-03-08T03:52:08;86984.34;;;4.86;54.89
82953;BME280;74888;40.196;44.560;2024-03-08T03:54:40;86989.34;;;4.70;56.54
82953;BME280;74888;40.196;44.560;2024-03-08T03:57:06;86990.50;;;4.69;55.61
82953;BME280;74888;40.196;44.560;2024-03-08T03:59:35;86991.16;;;4.84;55.44
82953;BME280;74888;40.196;44.560;2024-03-08T04:02:02;86989.06;;;5.08;54.86
82953;BME280;74888;40.196;44.560;2024-03-08T04:04:30;86991.22;;;5.35;54.16
82953;BME280;74888;40.196;44.560;2024-03-08T04:07:03;86998.69;;;5.48;54.12
82953;BME280;74888;40.196;44.560;2024-03-08T04:09:30;86984.47;;;5.49;53.58
82953;BME280;74888;40.196;44.560;2024-03-08T04:11:55;86998.75;;;5.59;53.15
82953;BME280;74888;40.196;44.560;2024-03-08T04:14:23;87005.19;;;5.63;53.10
82953;BME280;74888;40.196;44.560;2024-03-08T04:16:51;86999.63;;;5.76;53.09
82953;BME280;74888;40.196;44.560;2024-03-08T04:19:18;87002.72;;;5.80;53.03
82953;BME280;74888;40.196;44.560;2024-03-08T04:21:45;87004.16;;;5.81;53.08
82953;BME280;74888;40.196;44.560;2024-03-08T04:24:11;87010.38;;;5.63;54.03
82953;BME280;74888;40.196;44.560;2024-03-08T04:26:36;87000.19;;;5.34;55.14
82953;BME280;74888;40.196;44.560;2024-03-08T04:29:04;87001.47;;;5.44;54.35
82953;BME280;74888;40.196;44.560;2024-03-08T04:31:31;87011.31;;;5.60;54.67
82953;BME280;74888;40.196;44.560;2024-03-08T04:33:57;87013.56;;;5.73;54.70
82953;BME280;74888;40.196;44.560;2024-03-08T04:36:23;87016.41;;;6.00;53.67
82953;BME280;74888;40.196;44.560;2024-03-08T04:38:52;87016.06;;;6.18;52.97
82953;BME280;74888;40.196;44.560;2024-03-08T04:41:18;87024.63;;;6.24;52.59
82953;BME280;74888;40.196;44.560;2024-03-08T04:43:45;87016.34;;;6.26;52.87
82953;BME280;74888;40.196;44.560;2024-03-08T04:46:11;87016.28;;;6.52;52.09
82953;BME280;74888;40.196;44.560;2024-03-08T04:48:37;87025.81;;;6.60;51.61
82953;BME280;74888;40.196;44.560;2024-03-08T04:51:03;87029.06;;;6.50;52.16
82953;BME280;74888;40.196;44.560;2024-03-08T04:53:29;87022.97;;;6.64;51.37
82953;BME280;74888;40.196;44.560;2024-03-08T04:55:57;87027.09;;;6.76;50.77
82953;BME280;74888;40.196;44.560;2024-03-08T04:58:25;87032.78;;;6.80;50.78
82953;BME280;74888;40.196;44.560;2024-03-08T05:00:54;87026.16;;;6.79;49.39
82953;BME280;74888;40.196;44.560;2024-03-08T05:03:20;87029.69;;;6.81;50.15
82953;BME280;74888;40.196;44.560;2024-03-08T05:05:46;87029.22;;;6.83;48.84
82953;BME280;74888;40.196;44.560;2024-03-08T05:08:14;87032.19;;;7.07;49.10
82953;BME280;74888;40.196;44.560;2024-03-08T05:10:39;87030.88;;;7.28;49.12
82953;BME280;74888;40.196;44.560;2024-03-08T05:13:05;87032.78;;;7.33;46.98
82953;BME280;74888;40.196;44.560;2024-03-08T05:15:31;87032.78;;;7.44;48.20
82953;BME280;74888;40.196;44.560;2024-03-08T05:18:01;87029.03;;;7.56;45.72
82953;BME280;74888;40.196;44.560;2024-03-08T05:20:27;87034.47;;;7.53;46.32
82953;BME280;74888;40.196;44.560;2024-03-08T05:22:53;87021.44;;;7.58;46.97
82953;BME280;74888;40.196;44.560;2024-03-08T05:25:22;87026.22;;;7.71;47.29
82953;BME280;74888;40.196;44.560;2024-03-08T05:27:48;87031.69;;;7.78;44.71
82953;BME280;74888;40.196;44.560;2024-03-08T05:30:16;87031.66;;;7.62;44.91
82953;BME280;74888;40.196;44.560;2024-03-08T05:32:42;87027.88;;;7.68;46.04
82953;BME280;74888;40.196;44.560;2024-03-08T05:35:11;87040.97;;;7.85;45.96
82953;BME280;74888;40.196;44.560;2024-03-08T05:37:39;87033.88;;;8.07;45.97
82953;BME280;74888;40.196;44.560;2024-03-08T05:40:06;87037.47;;;8.26;46.68
82953;BME280;74888;40.196;44.560;2024-03-08T05:42:35;87040.06;;;8.43;47.15
82953;BME280;74888;40.196;44.560;2024-03-08T05:45:02;87041.97;;;8.59;47.57
82953;BME280;74888;40.196;44.560;2024-03-08T05:47:28;87041.25;;;8.69;46.96
82953;BME280;74888;40.196;44.560;2024-03-08T05:49:54;87042.66;;;8.76;47.21
82953;BME280;74888;40.196;44.560;2024-03-08T05:52:20;87037.19;;;8.80;47.23
82953;BME280;74888;40.196;44.560;2024-03-08T05:54:46;87050.47;;;8.93;47.48
82953;BME280;74888;40.196;44.560;2024-03-08T05:57:12;87044.75;;;9.00;46.62
82953;BME280;74888;40.196;44.560;2024-03-08T05:59:39;87054.03;;;9.06;46.72
82953;BME280;74888;40.196;44.560;2024-03-08T06:02:05;87053.50;;;9.19;46.89
82953;BME280;74888;40.196;44.560;2024-03-08T06:04:32;87054.47;;;9.21;46.25
82953;BME280;74888;40.196;44.560;2024-03-08T06:06:57;87059.69;;;9.16;46.18
82953;BME280;74888;40.196;44.560;2024-03-08T06:09:24;87054.69;;;9.18;47.31
82953;BME280;74888;40.196;44.560;2024-03-08T06:11:52;87050.84;;;9.30;46.89
82953;BME280;74888;40.196;44.560;2024-03-08T06:14:20;87057.25;;;9.40;46.99
82953;BME280;74888;40.196;44.560;2024-03-08T06:16:46;87053.19;;;9.44;47.06
82953;BME280;74888;40.196;44.560;2024-03-08T06:19:13;87052.22;;;9.47;47.11
82953;BME280;74888;40.196;44.560;2024-03-08T06:21:39;87057.00;;;9.49;47.29
82953;BME280;74888;40.196;44.560;2024-03-08T06:24:05;87061.69;;;9.56;47.07
82953;BME280;74888;40.196;44.560;2024-03-08T06:26:30;87056.47;;;9.56;46.97
82953;BME280;74888;40.196;44.560;2024-03-08T06:28:56;87062.44;;;9.56;47.34
82953;BME280;74888;40.196;44.560;2024-03-08T06:31:22;87060.28;;;9.55;47.32
82953;BME280;74888;40.196;44.560;2024-03-08T06:33:48;87066.00;;;9.59;47.73
82953;BME280;74888;40.196;44.560;2024-03-08T06:36:19;87058.34;;;9.61;47.20
82953;BME280;74888;40.196;44.560;2024-03-08T06:38:48;87064.53;;;9.63;47.11
82953;BME280;74888;40.196;44.560;2024-03-08T06:41:15;87066.69;;;9.65;47.44
82953;BME280;74888;40.196;44.560;2024-03-08T06:43:44;87069.50;;;9.72;47.72
82953;BME280;74888;40.196;44.560;2024-03-08T06:46:10;87070.22;;;9.73;47.43
82953;BME280;74888;40.196;44.560;2024-03-08T06:48:40;87070.94;;;9.68;47.41
82953;BME280;74888;40.196;44.560;2024-03-08T06:51:06;87076.41;;;9.70;47.43
82953;BME280;74888;40.196;44.560;2024-03-08T06:53:32;87065.94;;;9.75;47.96
82953;BME280;74888;40.196;44.560;2024-03-08T06:56:03;87070.19;;;9.78;47.82
82953;BME280;74888;40.196;44.560;2024-03-08T06:58:29;87071.16;;;9.75;47.22
82953;BME280;74888;40.196;44.560;2024-03-08T07:00:55;87075.44;;;9.78;47.57
82953;BME280;74888;40.196;44.560;2024-03-08T07:03:25;87068.47;;;9.86;47.22
82953;BME280;74888;40.196;44.560;2024-03-08T07:05:52;87073.97;;;9.83;47.02
82953;BME280;74888;40.196;44.560;2024-03-08T07:08:18;87076.41;;;9.75;47.34
82953;BME280;74888;40.196;44.560;2024-03-08T07:10:45;87069.47;;;9.78;47.23
82953;BME280;74888;40.196;44.560;2024-03-08T07:13:11;87071.16;;;9.75;47.41
82953;BME280;74888;40.196;44.560;2024-03-08T07:15:36;87070.44;;;9.75;47.55
82953;BME280;74888;40.196;44.560;2024-03-08T07:18:02;87077.59;;;9.74;47.37
82953;BME280;74888;40.196;44.560;2024-03-08T07:20:29;87075.44;;;9.78;47.23
82953;BME280;74888;40.196;44.560;2024-03-08T07:22:54;87080.69;;;9.78;46.87
82953;BME280;74888;40.196;44.560;2024-03-08T07:25:20;87077.81;;;9.82;47.28
82953;BME280;74888;40.196;44.560;2024-03-08T07:27:50;87074.19;;;9.90;47.55
82953;BME280;74888;40.196;44.560;2024-03-08T07:30:17;87074.41;;;9.92;46.53
82953;BME280;74888;40.196;44.560;2024-03-08T07:33:03;87083.22;;;9.95;46.69
82953;BME280;74888;40.196;44.560;2024-03-08T07:35:29;87081.00;;;10.05;47.35
82953;BME280;74888;40.196;44.560;2024-03-08T07:37:55;87078.13;;;10.19;47.02
82953;BME280;74888;40.196;44.560;2024-03-08T07:40:24;87078.25;;;10.32;47.29
82953;BME280;74888;40.196;44.560;2024-03-08T07:42:50;87078.03;;;10.30;46.96
82953;BME280;74888;40.196;44.560;2024-03-08T07:45:16;87079.97;;;10.30;47.37
82953;BME280;74888;40.196;44.560;2024-03-08T07:47:46;87080.22;;;10.26;47.73
82953;BME280;74888;40.196;44.560;2024-03-08T07:52:48;87084.56;;;10.53;47.72
82953;BME280;74888;40.196;44.560;2024-03-08T07:55:16;87081.47;;;10.55;47.14
82953;BME280;74888;40.196;44.560;2024-03-08T07:57:43;87079.19;;;10.70;46.49
82953;BME280;74888;40.196;44.560;2024-03-08T08:00:10;87078.72;;;10.71;46.28
82953;BME280;74888;40.196;44.560;2024-03-08T08:02:37;87087.50;;;10.74;46.12
82953;BME280;74888;40.196;44.560;2024-03-08T08:05:03;87076.44;;;10.86;45.38
82953;BME280;74888;40.196;44.560;2024-03-08T08:07:29;87078.00;;;11.00;44.47
82953;BME280;74888;40.196;44.560;2024-03-08T08:09:55;87079.63;;;11.03;43.09
82953;BME280;74888;40.196;44.560;2024-03-08T08:12:20;87070.00;;;11.11;43.84
82953;BME280;74888;40.196;44.560;2024-03-08T08:14:48;87075.97;;;11.12;43.20
82953;BME280;74888;40.196;44.560;2024-03-08T08:17:15;87071.22;;;11.10;42.64
82953;BME280;74888;40.196;44.560;2024-03-08T08:19:42;87070.28;;;11.08;42.14
82953;BME280;74888;40.196;44.560;2024-03-08T08:22:10;87072.63;;;11.11;40.64
82953;BME280;74888;40.196;44.560;2024-03-08T08:24:36;87084.34;;;11.10;40.62
82953;BME280;74888;40.196;44.560;2024-03-08T08:27:07;87068.75;;;11.18;39.73
82953;BME280;74888;40.196;44.560;2024-03-08T08:29:36;87071.00;;;11.08;38.68
82953;BME280;74888;40.196;44.560;2024-03-08T08:32:02;87086.53;;;11.06;40.79
82953;BME280;74888;40.196;44.560;2024-03-08T08:34:29;87083.44;;;11.02;39.77
82953;BME280;74888;40.196;44.560;2024-03-08T08:36:55;87084.13;;;11.08;39.83
82953;BME280;74888;40.196;44.560;2024-03-08T08:39:22;87082.81;;;11.21;39.66
82953;BME280;74888;40.196;44.560;2024-03-08T08:41:48;87080.13;;;11.26;38.29
82953;BME280;74888;40.196;44.560;2024-03-08T08:44:14;87082.44;;;11.35;39.72
82953;BME280;74888;40.196;44.560;2024-03-08T08:46:45;87071.38;;;11.42;37.66
82953;BME280;74888;40.196;44.560;2024-03-08T08:49:12;87075.59;;;11.51;38.13
82953;BME280;74888;40.196;44.560;2024-03-08T08:51:40;87066.94;;;11.56;39.81
82953;BME280;74888;40.196;44.560;2024-03-08T08:54:05;87066.16;;;11.61;38.05
82953;BME280;74888;40.196;44.560;2024-03-08T08:56:34;87067.81;;;11.64;38.45
82953;BME280;74888;40.196;44.560;2024-03-08T08:59:00;87070.94;;;11.62;38.05
82953;BME280;74888;40.196;44.560;2024-03-08T09:01:26;87068.34;;;11.57;39.31
82953;BME280;74888;40.196;44.560;2024-03-08T09:03:52;87048.50;;;11.61;37.07
82953;BME280;74888;40.196;44.560;2024-03-08T09:06:19;87061.56;;;11.67;38.46
82953;BME280;74888;40.196;44.560;2024-03-08T09:08:46;87051.72;;;11.73;37.33
82953;BME280;74888;40.196;44.560;2024-03-08T09:11:13;87050.09;;;11.70;35.59
82953;BME280;74888;40.196;44.560;2024-03-08T09:13:39;87047.81;;;11.79;37.15
82953;BME280;74888;40.196;44.560;2024-03-08T09:16:05;87045.25;;;11.92;37.85
82953;BME280;74888;40.196;44.560;2024-03-08T09:18:32;87051.25;;;12.11;35.34
82953;BME280;74888;40.196;44.560;2024-03-08T09:20:58;87050.69;;;12.18;36.30
82953;BME280;74888;40.196;44.560;2024-03-08T09:23:25;87049.97;;;12.18;34.59
82953;BME280;74888;40.196;44.560;2024-03-08T09:25:58;87045.53;;;12.26;33.53
82953;BME280;74888;40.196;44.560;2024-03-08T09:28:24;87044.25;;;12.32;35.37
82953;BME280;74888;40.196;44.560;2024-03-08T09:30:52;87038.91;;;12.38;34.88
82953;BME280;74888;40.196;44.560;2024-03-08T09:33:18;87036.44;;;12.46;33.38
82953;BME280;74888;40.196;44.560;2024-03-08T09:35:47;87033.78;;;12.46;33.12
82953;BME280;74888;40.196;44.560;2024-03-08T09:38:15;87034.91;;;12.50;33.50
82953;BME280;74888;40.196;44.560;2024-03-08T09:40:41;87031.00;;;12.57;33.00
82953;BME280;74888;40.196;44.560;2024-03-08T09:43:07;87025.72;;;12.57;33.64
82953;BME280;74888;40.196;44.560;2024-03-08T09:45:36;87024.38;;;12.50;34.29
82953;BME280;74888;40.196;44.560;2024-03-08T09:48:13;87025.97;;;12.40;33.70
82953;BME280;74888;40.196;44.560;2024-03-08T09:50:42;87024.09;;;12.22;33.33
82953;BME280;74888;40.196;44.560;2024-03-08T09:53:09;87024.00;;;12.09;34.58
82953;BME280;74888;40.196;44.560;2024-03-08T09:55:37;87018.66;;;12.14;33.56
82953;BME280;74888;40.196;44.560;2024-03-08T09:58:08;87018.88;;;12.35;34.69
82953;BME280;74888;40.196;44.560;2024-03-08T10:00:55;87016.78;;;12.47;34.01
82953;BME280;74888;40.196;44.560;2024-03-08T10:03:28;87010.69;;;12.38;33.48
82953;BME280;74888;40.196;44.560;2024-03-08T10:05:56;87005.75;;;12.48;34.80
82953;BME280;74888;40.196;44.560;2024-03-08T10:08:29;86998.00;;;12.69;33.30
82953;BME280;74888;40.196;44.560;2024-03-08T10:11:03;87000.97;;;12.91;31.32
82953;BME280;74888;40.196;44.560;2024-03-08T10:13:29;86995.66;;;13.10;32.35
82953;BME280;74888;40.196;44.560;2024-03-08T10:15:55;87002.16;;;13.22;31.62
82953;BME280;74888;40.196;44.560;2024-03-08T10:18:22;86998.03;;;13.26;31.97
82953;BME280;74888;40.196;44.560;2024-03-08T10:21:16;86997.00;;;13.29;29.54
82953;BME280;74888;40.196;44.560;2024-03-08T10:23:42;86991.72;;;13.42;31.68
82953;BME280;74888;40.196;44.560;2024-03-08T10:26:16;86989.91;;;13.64;30.42
82953;BME280;74888;40.196;44.560;2024-03-08T10:28:42;86984.59;;;13.77;30.78
82953;BME280;74888;40.196;44.560;2024-03-08T10:31:09;86989.34;;;13.91;30.69
82953;BME280;74888;40.196;44.560;2024-03-08T10:33:35;86979.56;;;13.99;30.49
82953;BME280;74888;40.196;44.560;2024-03-08T10:36:03;86989.22;;;13.97;31.64
82953;BME280;74888;40.196;44.560;2024-03-08T10:38:31;86991.19;;;13.83;29.31
82953;BME280;74888;40.196;44.560;2024-03-08T10:41:01;86990.22;;;13.60;30.70
82953;BME280;74888;40.196;44.560;2024-03-08T10:43:28;87002.56;;;13.52;30.56
82953;BME280;74888;40.196;44.560;2024-03-08T10:46:20;86996.09;;;13.40;28.61
82953;BME280;74888;40.196;44.560;2024-03-08T10:48:49;86993.47;;;13.40;30.71
82953;BME280;74888;40.196;44.560;2024-03-08T10:51:19;86980.78;;;13.51;30.87
82953;BME280;74888;40.196;44.560;2024-03-08T10:53:47;86991.31;;;13.65;29.78
82953;BME280;74888;40.196;44.560;2024-03-08T10:56:14;86992.34;;;13.62;28.59
82953;BME280;74888;40.196;44.560;2024-03-08T10:58:40;86989.28;;;13.57;29.87
82953;BME280;74888;40.196;44.560;2024-03-08T11:01:07;86989.19;;;13.63;29.42
82953;BME280;74888;40.196;44.560;2024-03-08T11:08:49;86986.06;;;13.12;29.30
82953;BME280;74888;40.196;44.560;2024-03-08T11:11:31;86984.03;;;13.31;27.93
82953;BME280;74888;40.196;44.560;2024-03-08T11:13:58;86979.75;;;13.54;28.83
82953;BME280;74888;40.196;44.560;2024-03-08T11:21:44;86968.78;;;14.85;29.57
82953;BME280;74888;40.196;44.560;2024-03-08T11:24:13;86969.25;;;14.97;27.48
82953;BME280;74888;40.196;44.560;2024-03-08T11:26:45;86971.75;;;15.02;27.74
82953;BME280;74888;40.196;44.560;2024-03-08T11:32:16;86975.09;;;15.03;27.98
82953;BME280;74888;40.196;44.560;2024-03-08T11:34:46;86972.06;;;14.99;29.11
82953;BME280;74888;40.196;44.560;2024-03-08T11:37:16;86974.59;;;15.04;28.04
82953;BME280;74888;40.196;44.560;2024-03-08T11:39:54;86978.91;;;15.15;25.33
82953;BME280;74888;40.196;44.560;2024-03-08T11:42:25;86979.75;;;14.89;26.60
82953;BME280;74888;40.196;44.560;2024-03-08T11:44:52;86975.50;;;14.45;28.31
82953;BME280;74888;40.196;44.560;2024-03-08T11:47:18;86979.59;;;14.33;28.10
82953;BME280;74888;40.196;44.560;2024-03-08T11:49:45;86973.94;;;14.29;28.77
82953;BME280;74888;40.196;44.560;2024-03-08T11:52:18;86976.78;;;14.18;26.45
82953;BME280;74888;40.196;44.560;2024-03-08T11:54:54;86976.06;;;13.84;27.82
82953;BME280;74888;40.196;44.560;2024-03-08T11:57:25;86978.19;;;13.72;28.35
82953;BME280;74888;40.196;44.560;2024-03-08T11:59:55;86978.94;;;13.59;29.24
82953;BME280;74888;40.196;44.560;2024-03-08T12:02:24;86991.34;;;13.51;28.91
82953;BME280;74888;40.196;44.560;2024-03-08T12:04:57;86982.00;;;13.37;27.81
82953;BME280;74888;40.196;44.560;2024-03-08T12:07:26;86982.41;;;13.28;29.37
82953;BME280;74888;40.196;44.560;2024-03-08T12:10:19;86976.94;;;13.39;27.38
82953;BME280;74888;40.196;44.560;2024-03-08T12:12:48;86982.81;;;13.58;28.87
82953;BME280;74888;40.196;44.560;2024-03-08T12:15:15;86982.25;;;13.86;29.25
82953;BME280;74888;40.196;44.560;2024-03-08T12:17:43;86976.25;;;13.99;28.50
82953;BME280;74888;40.196;44.560;2024-03-08T12:20:15;86982.03;;;13.97;27.30
82953;BME280;74888;40.196;44.560;2024-03-08T12:22:42;86980.31;;;13.87;27.51
82953;BME280;74888;40.196;44.560;2024-03-08T12:25:11;86986.53;;;13.76;26.71
82953;BME280;74888;40.196;44.560;2024-03-08T12:27:41;86974.50;;;13.54;28.41
82953;BME280;74888;40.196;44.560;2024-03-08T12:30:27;86977.72;;;13.60;28.54
82953;BME280;74888;40.196;44.560;2024-03-08T12:32:58;86969.41;;;13.70;29.05
82953;BME280;74888;40.196;44.560;2024-03-08T12:35:28;86977.50;;;13.85;27.63
82953;BME280;74888;40.196;44.560;2024-03-08T12:37:59;86981.31;;;13.97;26.43
82953;BME280;74888;40.196;44.560;2024-03-08T12:40:29;86978.72;;;14.17;27.94
82953;BME280;74888;40.196;44.560;2024-03-08T12:42:58;86979.81;;;14.22;28.15
82953;BME280;74888;40.196;44.560;2024-03-08T12:45:24;86979.88;;;14.09;27.83
82953;BME280;74888;40.196;44.560;2024-03-08T12:47:51;86972.69;;;13.96;28.09
82953;BME280;74888;40.196;44.560;2024-03-08T12:50:19;86983.97;;;13.97;27.88
82953;BME280;74888;40.196;44.560;2024-03-08T12:52:44;86976.41;;;14.01;27.94
82953;BME280;74888;40.196;44.560;2024-03-08T12:55:11;86977.75;;;13.94;27.77
82953;BME280;74888;40.196;44.560;2024-03-08T12:57:38;86974.94;;;13.79;27.27
82953;BME280;74888;40.196;44.560;2024-03-08T13:00:04;86973.25;;;13.69;27.82
82953;BME280;74888;40.196;44.560;2024-03-08T13:02:30;86970.72;;;13.63;27.33
82953;BME280;74888;40.196;44.560;2024-03-08T13:05:00;86970.25;;;13.51;27.62
82953;BME280;74888;40.196;44.560;2024-03-08T13:07:26;86973.38;;;13.50;28.28
82953;BME280;74888;40.196;44.560;2024-03-08T13:09:53;86956.16;;;13.36;27.71
82953;BME280;74888;40.196;44.560;2024-03-08T13:12:20;86954.81;;;13.42;28.75
82953;BME280;74888;40.196;44.560;2024-03-08T13:14:46;86967.38;;;13.63;28.91